Time;durP1;ratioP1;P1;durP2;ratioP2;P2;SDS_P1;SDS_P2;PMS_P1;PMS_P2;Temp;Humidity;BMP_temperature;BMP_pressure;BME280_temperature;BME280_humidity;BME280_pressure;Samples;Min_cycle;Max_cycle;Signal;HPM_P1;HPM_P2
2023/09/17 00:01:23;;;;;;;11.97;9.87;;;;;;;;;;4937145;29;20756;-73
2023/09/17 00:04:27;;;;;;;11.37;10.17;;;;;;;;;;4938359;29;20778;-73
2023/09/17 00:07:31;;;;;;;10.90;9.80;;;;;;;;;;4937882;29;20192;-73
2023/09/17 00:10:37;;;;;;;11.30;10.00;;;;;;;;;;4938244;29;20184;-73
2023/09/17 00:13:41;;;;;;;12.43;9.67;;;;;;;;;;4937678;29;20567;-73
2023/09/17 00:16:46;;;;;;;11.53;10.43;;;;;;;;;;4937788;29;20191;-73
2023/09/17 00:19:50;;;;;;;12.20;9.80;;;;;;;;;;4937961;29;20551;-73
2023/09/17 00:22:54;;;;;;;11.10;10.00;;;;;;;;;;4937571;29;20231;-73
2023/09/17 00:25:58;;;;;;;11.40;10.07;;;;;;;;;;4937037;29;20191;-73
2023/09/17 00:29:02;;;;;;;11.37;9.67;;;;;;;;;;4936776;29;20204;-73
2023/09/17 00:32:07;;;;;;;12.13;10.60;;;;;;;;;;4936636;29;20247;-72
2023/09/17 00:35:12;;;;;;;11.07;10.00;;;;;;;;;;4937326;29;20211;-73
2023/09/17 00:38:16;;;;;;;11.43;10.23;;;;;;;;;;4936823;29;20547;-73
2023/09/17 00:41:19;;;;;;;11.07;8.37;;;;;;;;;;4936410;29;20218;-73
2023/09/17 00:44:24;;;;;;;10.67;9.57;;;;;;;;;;4936674;29;20187;-72
2023/09/17 00:47:29;;;;;;;11.73;10.53;;;;;;;;;;4937134;29;20192;-72
2023/09/17 00:50:34;;;;;;;13.00;10.93;;;;;;;;;;4937036;29;20211;-73
2023/09/17 00:53:40;;;;;;;12.03;10.67;;;;;;;;;;4937274;29;20194;-73
2023/09/17 00:56:44;;;;;;;11.00;9.70;;;;;;;;;;4936977;29;20183;-73
2023/09/17 00:59:48;;;;;;;11.33;10.23;;;;;;;;;;4936165;29;20267;-72
2023/09/17 01:02:53;;;;;;;11.83;10.63;;;;;;;;;;4925551;29;20235;-72
2023/09/17 01:06:02;;;;;;;10.03;9.03;;;;;;;;;;4936045;29;20183;-72
2023/09/17 01:09:09;;;;;;;11.77;9.33;;;;;;;;;;4936036;29;20180;-72
2023/09/17 01:12:14;;;;;;;9.13;8.23;;;;;;;;;;4935700;29;20223;-73
2023/09/17 01:15:19;;;;;;;9.47;8.47;;;;;;;;;;4935771;29;20224;-72
2023/09/17 01:18:22;;;;;;;11.30;8.40;;;;;;;;;;4936022;29;20184;-72
2023/09/17 01:22:12;;;;;;;10.13;9.13;;;;;;;;;;4935702;29;20235;-73
2023/09/17 01:25:28;;;;;;;11.67;9.57;;;;;;;;;;4935754;29;20199;-73
2023/09/17 01:28:33;;;;;;;10.20;9.10;;;;;;;;;;4936737;29;20663;-73
2023/09/17 01:31:37;;;;;;;9.97;8.83;;;;;;;;;;4935542;29;20228;-72
2023/09/17 01:34:45;;;;;;;10.07;8.70;;;;;;;;;;4935221;29;20180;-73
2023/09/17 01:37:56;;;;;;;11.83;8.77;;;;;;;;;;4935694;29;20663;-72
2023/09/17 01:41:02;;;;;;;10.43;9.33;;;;;;;;;;4935385;29;20659;-72
2023/09/17 01:44:08;;;;;;;10.43;8.90;;;;;;;;;;4924596;29;20552;-73
2023/09/17 01:47:13;;;;;;;8.97;8.07;;;;;;;;;;4935390;29;20655;-72
2023/09/17 01:50:17;;;;;;;10.03;8.23;;;;;;;;;;4936340;29;20180;-72
2023/09/17 01:53:23;;;;;;;9.60;8.00;;;;;;;;;;4913780;29;20184;-73
2023/09/17 01:56:27;;;;;;;10.23;8.30;;;;;;;;;;4935187;29;20204;-72
2023/09/17 01:59:31;;;;;;;9.50;8.50;;;;;;;;;;4924656;29;20187;-73
2023/09/17 02:02:36;;;;;;;9.50;7.90;;;;;;;;;;4935934;29;20224;-73
2023/09/17 02:05:40;;;;;;;9.20;8.03;;;;;;;;;;4935976;29;20176;-73
2023/09/17 02:08:44;;;;;;;8.90;8.00;;;;;;;;;;4935415;29;20192;-73
2023/09/17 02:11:49;;;;;;;9.20;8.20;;;;;;;;;;4935161;29;20219;-73
2023/09/17 02:14:53;;;;;;;10.53;9.20;;;;;;;;;;4924050;29;20180;-73
2023/09/17 02:17:58;;;;;;;10.77;8.53;;;;;;;;;;4935308;29;20537;-73
2023/09/17 02:21:02;;;;;;;9.17;8.17;;;;;;;;;;4935148;29;20229;-73
2023/09/17 02:24:07;;;;;;;9.23;7.87;;;;;;;;;;4934964;29;20184;-73
2023/09/17 02:27:11;;;;;;;9.50;7.53;;;;;;;;;;4935156;29;20184;-73
2023/09/17 02:30:15;;;;;;;10.00;8.40;;;;;;;;;;4934964;29;20524;-73
2023/09/17 02:33:19;;;;;;;10.03;8.10;;;;;;;;;;4934980;29;20189;-73
2023/09/17 02:36:24;;;;;;;9.87;7.97;;;;;;;;;;4934772;29;20728;-73
2023/09/17 02:39:28;;;;;;;8.80;7.90;;;;;;;;;;4934885;29;20188;-72
2023/09/17 02:42:32;;;;;;;10.20;8.67;;;;;;;;;;4923845;29;20216;-73
2023/09/17 02:45:36;;;;;;;10.17;9.00;;;;;;;;;;4935144;29;20187;-73
2023/09/17 02:48:40;;;;;;;9.30;8.27;;;;;;;;;;4939442;29;20544;-73
2023/09/17 02:51:44;;;;;;;9.53;8.27;;;;;;;;;;4938430;29;20215;-72
2023/09/17 02:54:48;;;;;;;9.07;8.10;;;;;;;;;;4939419;29;20184;-73
2023/09/17 02:57:53;;;;;;;9.97;8.47;;;;;;;;;;4938575;29;20189;-72
2023/09/17 03:00:56;;;;;;;12.00;8.77;;;;;;;;;;4938560;29;20180;-72
2023/09/17 03:04:02;;;;;;;11.20;9.17;;;;;;;;;;4938247;29;20193;-72
2023/09/17 03:07:06;;;;;;;9.87;8.77;;;;;;;;;;4927352;29;20177;-72
2023/09/17 03:10:11;;;;;;;13.07;8.70;;;;;;;;;;4938188;29;20184;-73
2023/09/17 03:13:16;;;;;;;12.90;10.20;;;;;;;;;;4938068;29;20210;-72
2023/09/17 03:16:22;;;;;;;10.20;9.13;;;;;;;;;;4937939;29;20235;-73
2023/09/17 03:19:26;;;;;;;10.33;9.23;;;;;;;;;;4938301;29;20191;-72
2023/09/17 03:22:30;;;;;;;12.47;9.97;;;;;;;;;;4938075;29;20234;-72
2023/09/17 03:25:35;;;;;;;11.23;9.40;;;;;;;;;;4937860;29;20172;-72
2023/09/17 03:28:39;;;;;;;11.43;9.60;;;;;;;;;;4938057;29;20184;-72
2023/09/17 03:31:45;;;;;;;9.23;8.30;;;;;;;;;;4937648;29;20227;-73
2023/09/17 03:34:50;;;;;;;9.70;8.77;;;;;;;;;;4926884;29;20181;-73
2023/09/17 03:37:56;;;;;;;9.67;8.63;;;;;;;;;;4927236;29;20640;-72
2023/09/17 03:41:01;;;;;;;8.97;8.07;;;;;;;;;;4937557;29;20176;-73
2023/09/17 03:44:09;;;;;;;10.37;8.93;;;;;;;;;;4937543;29;20637;-73
2023/09/17 03:47:14;;;;;;;10.70;9.70;;;;;;;;;;4937519;29;20661;-73
2023/09/17 03:50:18;;;;;;;9.70;8.70;;;;;;;;;;4926726;29;20180;-73
2023/09/17 03:53:23;;;;;;;9.83;8.83;;;;;;;;;;4937454;29;20188;-72
2023/09/17 03:56:28;;;;;;;11.33;9.10;;;;;;;;;;4926369;29;20213;-72
2023/09/17 03:59:33;;;;;;;13.20;9.70;;;;;;;;;;4937248;29;20192;-72
2023/09/17 04:02:39;;;;;;;10.70;9.60;;;;;;;;;;4937212;29;20229;-73
2023/09/17 04:05:46;;;;;;;9.77;8.77;;;;;;;;;;4937187;29;20547;-73
2023/09/17 04:08:50;;;;;;;10.30;9.17;;;;;;;;;;4926533;29;20517;-72
2023/09/17 04:11:54;;;;;;;9.97;8.97;;;;;;;;;;4937054;29;20235;-72
2023/09/17 04:14:58;;;;;;;9.07;8.17;;;;;;;;;;4937267;29;20192;-72
2023/09/17 04:18:04;;;;;;;10.83;9.10;;;;;;;;;;4936955;29;20660;-73
2023/09/17 04:21:08;;;;;;;28.77;9.57;;;;;;;;;;4937067;29;20227;-72
2023/09/17 04:24:13;;;;;;;11.13;8.37;;;;;;;;;;4936943;29;20193;-73
2023/09/17 04:27:17;;;;;;;10.03;8.97;;;;;;;;;;4937770;29;20185;-72
2023/09/17 04:30:21;;;;;;;9.57;8.57;;;;;;;;;;4925759;29;20184;-72
2023/09/17 04:33:26;;;;;;;9.20;8.20;;;;;;;;;;4936781;29;20529;-73
2023/09/17 04:36:30;;;;;;;11.40;8.37;;;;;;;;;;4925877;29;20212;-72
2023/09/17 04:39:35;;;;;;;13.17;8.10;;;;;;;;;;4925750;29;20193;-73
2023/09/17 04:42:43;;;;;;;9.37;8.43;;;;;;;;;;4936454;29;20222;-73
2023/09/17 04:45:49;;;;;;;10.73;8.33;;;;;;;;;;4936440;29;20185;-72
2023/09/17 04:49:04;;;;;;;39.53;9.40;;;;;;;;;;4936372;29;20188;-73
2023/09/17 04:52:09;;;;;;;28.47;10.43;;;;;;;;;;4936516;29;20227;-72
2023/09/17 04:55:14;;;;;;;12.83;9.83;;;;;;;;;;4936461;29;20183;-72
2023/09/17 04:58:18;;;;;;;13.50;9.60;;;;;;;;;;4936459;29;20183;-72
2023/09/17 05:01:25;;;;;;;16.93;10.20;;;;;;;;;;4936032;29;20220;-72
2023/09/17 05:04:29;;;;;;;14.60;10.70;;;;;;;;;;4936095;29;20188;-72
2023/09/17 05:07:35;;;;;;;23.83;11.67;;;;;;;;;;4925218;29;20191;-73
2023/09/17 05:10:40;;;;;;;16.00;10.33;;;;;;;;;;4924572;29;20211;-72
2023/09/17 05:13:44;;;;;;;16.87;10.90;;;;;;;;;;4924875;29;20214;-73
2023/09/17 05:16:48;;;;;;;11.63;10.13;;;;;;;;;;4935832;29;20215;-72
2023/09/17 05:19:52;;;;;;;10.03;9.00;;;;;;;;;;4925229;29;20187;-74
2023/09/17 05:22:56;;;;;;;11.53;9.73;;;;;;;;;;4935772;29;20222;-73
2023/09/17 05:26:00;;;;;;;11.67;9.60;;;;;;;;;;4936014;29;20192;-73
2023/09/17 05:29:08;;;;;;;15.50;9.77;;;;;;;;;;4935863;29;20184;-73
2023/09/17 05:32:13;;;;;;;10.43;9.00;;;;;;;;;;4935591;29;20223;-73
2023/09/17 05:35:17;;;;;;;10.87;9.30;;;;;;;;;;4935554;29;20558;-73
2023/09/17 05:38:21;;;;;;;14.33;9.03;;;;;;;;;;4935637;29;20185;-73
2023/09/17 05:41:25;;;;;;;10.13;8.57;;;;;;;;;;4936341;29;20730;-73
2023/09/17 05:44:30;;;;;;;13.23;8.30;;;;;;;;;;4924709;29;20195;-73
2023/09/17 05:47:35;;;;;;;21.47;9.20;;;;;;;;;;4935449;29;20185;-73
2023/09/17 05:50:39;;;;;;;11.07;8.30;;;;;;;;;;4935415;29;20576;-73
2023/09/17 05:53:43;;;;;;;13.97;8.63;;;;;;;;;;4924530;29;20188;-73
2023/09/17 05:56:47;;;;;;;16.57;11.10;;;;;;;;;;4935273;29;20223;-73
2023/09/17 05:59:52;;;;;;;16.03;11.37;;;;;;;;;;4924114;29;20191;-72
2023/09/17 06:02:57;;;;;;;17.67;10.10;;;;;;;;;;4934188;29;20223;-72
2023/09/17 06:06:04;;;;;;;15.73;11.70;;;;;;;;;;4912958;29;20211;-73
2023/09/17 06:09:09;;;;;;;23.83;10.27;;;;;;;;;;4934141;29;20187;-73
2023/09/17 06:12:15;;;;;;;17.10;11.57;;;;;;;;;;4935055;29;20238;-73
2023/09/17 06:15:19;;;;;;;14.07;10.50;;;;;;;;;;4935415;29;20658;-73
2023/09/17 06:18:23;;;;;;;13.27;10.03;;;;;;;;;;4935403;29;20191;-73
2023/09/17 06:21:28;;;;;;;12.60;11.17;;;;;;;;;;4937633;29;20226;-72
2023/09/17 06:24:31;;;;;;;12.23;9.83;;;;;;;;;;4939426;29;20199;-73
2023/09/17 06:27:35;;;;;;;20.97;12.57;;;;;;;;;;4939189;29;20556;-73
2023/09/17 06:30:40;;;;;;;19.50;11.77;;;;;;;;;;4939503;29;20675;-73
2023/09/17 06:33:44;;;;;;;33.00;13.67;;;;;;;;;;4940289;29;20191;-73
2023/09/17 06:36:48;;;;;;;61.20;14.70;;;;;;;;;;4939868;29;20219;-73
2023/09/17 06:39:52;;;;;;;28.17;14.80;;;;;;;;;;4939618;29;20187;-72
2023/09/17 06:42:57;;;;;;;20.00;14.00;;;;;;;;;;4927739;29;20235;-73
2023/09/17 06:46:01;;;;;;;67.50;44.80;;;;;;;;;;4938881;29;20639;-72
2023/09/17 06:49:05;;;;;;;42.60;28.20;;;;;;;;;;4939631;29;20188;-73
2023/09/17 06:52:09;;;;;;;45.70;26.27;;;;;;;;;;4939741;29;20226;-73
2023/09/17 06:55:13;;;;;;;35.53;22.97;;;;;;;;;;4938456;29;20195;-73
2023/09/17 06:58:17;;;;;;;37.23;22.20;;;;;;;;;;4939149;29;20219;-73
2023/09/17 07:01:21;;;;;;;66.67;22.93;;;;;;;;;;4939502;29;20226;-73
2023/09/17 07:04:26;;;;;;;44.67;20.47;;;;;;;;;;4939550;29;20191;-72
2023/09/17 07:07:30;;;;;;;29.27;20.00;;;;;;;;;;4938730;29;20187;-73
2023/09/17 07:10:34;;;;;;;29.23;19.90;;;;;;;;;;4939133;29;20187;-73
2023/09/17 07:13:40;;;;;;;23.13;16.43;;;;;;;;;;4939316;29;20223;-73
2023/09/17 07:16:44;;;;;;;23.43;13.47;;;;;;;;;;4939305;29;20572;-73
2023/09/17 07:19:48;;;;;;;24.07;17.77;;;;;;;;;;4938970;29;20195;-73
2023/09/17 07:22:52;;;;;;;19.80;17.70;;;;;;;;;;4938733;29;20231;-73
2023/09/17 07:25:56;;;;;;;19.43;17.47;;;;;;;;;;4938698;29;20192;-73
2023/09/17 07:29:03;;;;;;;20.57;14.47;;;;;;;;;;4938929;29;20187;-73
2023/09/17 07:32:07;;;;;;;13.93;12.17;;;;;;;;;;4937685;29;20742;-74
2023/09/17 07:35:11;;;;;;;14.63;12.47;;;;;;;;;;4938539;29;20187;-73
2023/09/17 07:38:15;;;;;;;13.23;11.40;;;;;;;;;;4937956;29;20223;-74
2023/09/17 07:41:20;;;;;;;12.87;11.47;;;;;;;;;;4938556;29;20242;-73
2023/09/17 07:44:24;;;;;;;20.73;11.07;;;;;;;;;;4938381;29;20191;-74
2023/09/17 07:47:29;;;;;;;12.00;10.73;;;;;;;;;;4938623;29;20200;-73
2023/09/17 07:50:33;;;;;;;12.93;11.73;;;;;;;;;;4938354;29;20191;-74
2023/09/17 07:53:38;;;;;;;11.60;10.40;;;;;;;;;;4938253;29;20556;-73
2023/09/17 07:56:42;;;;;;;17.77;10.30;;;;;;;;;;4938926;29;20199;-73
2023/09/17 07:59:49;;;;;;;15.97;10.20;;;;;;;;;;4938151;29;20187;-73
2023/09/17 08:02:54;;;;;;;22.00;11.60;;;;;;;;;;4926342;29;20226;-73
2023/09/17 08:05:59;;;;;;;25.20;12.97;;;;;;;;;;4938265;29;20195;-73
2023/09/17 08:09:06;;;;;;;34.17;14.43;;;;;;;;;;4937998;29;20188;-74
2023/09/17 08:12:10;;;;;;;51.70;17.00;;;;;;;;;;4938041;29;20235;-73
2023/09/17 08:15:16;;;;;;;48.03;16.30;;;;;;;;;;4937204;29;20211;-73
2023/09/17 08:18:21;;;;;;;21.03;14.70;;;;;;;;;;4937618;29;20698;-73
2023/09/17 08:21:25;;;;;;;15.67;14.00;;;;;;;;;;4938497;29;20226;-74
2023/09/17 08:24:41;;;;;;;25.93;13.60;;;;;;;;;;4937433;29;20189;-73
2023/09/17 08:28:06;;;;;;;24.10;12.93;;;;;;;;;;4938156;29;20291;-73
2023/09/17 08:31:32;;;;;;;19.57;12.73;;;;;;;;;;4937796;29;20722;-74
2023/09/17 08:34:56;;;;;;;15.03;10.00;;;;;;;;;;4937857;29;20190;-74
2023/09/17 08:38:01;;;;;;;12.07;9.10;;;;;;;;;;4936742;29;20221;-74
2023/09/17 08:41:06;;;;;;;11.90;9.00;;;;;;;;;;4937588;29;20226;-74
2023/09/17 08:44:12;;;;;;;17.27;11.27;;;;;;;;;;4937325;29;20188;-74
2023/09/17 08:47:16;;;;;;;14.40;12.18;;;;;;;;;;4936724;29;20194;-74
2023/09/17 08:50:20;;;;;;;21.10;11.85;;;;;;;;;;4937253;29;20189;-73
2023/09/17 08:53:33;;;;;;;14.13;10.75;;;;;;;;;;4937431;29;20252;-74
2023/09/17 08:56:42;;;;;;;10.80;9.48;;;;;;;;;;4936776;29;20738;-74
2023/09/17 08:59:52;;;;;;;14.52;9.75;;;;;;;;;;4936994;29;20191;-74
2023/09/17 09:03:01;;;;;;;17.77;15.35;;;;;;;;;;4936960;29;20216;-74
2023/09/17 09:06:06;;;;;;;14.50;10.55;;;;;;;;;;4936064;29;20187;-74
2023/09/17 09:09:10;;;;;;;13.27;10.35;;;;;;;;;;4936289;29;20208;-74
2023/09/17 09:12:15;;;;;;;12.20;9.20;;;;;;;;;;4924937;29;20596;-74
2023/09/17 09:15:20;;;;;;;12.13;9.05;;;;;;;;;;4936183;29;20563;-74
2023/09/17 09:18:25;;;;;;;10.45;9.45;;;;;;;;;;4936359;29;20225;-74
2023/09/17 09:21:29;;;;;;;9.38;8.35;;;;;;;;;;4935947;29;20226;-74
2023/09/17 09:24:47;;;;;;;8.90;8.00;;;;;;;;;;4935955;29;20188;-74
2023/09/17 09:27:50;;;;;;;8.95;7.53;;;;;;;;;;4935970;29;20173;-75
2023/09/17 09:30:55;;;;;;;11.75;7.18;;;;;;;;;;4936586;29;20212;-74
2023/09/17 09:34:00;;;;;;;9.40;6.10;;;;;;;;;;4935833;29;20180;-74
2023/09/17 09:37:06;;;;;;;8.65;7.40;;;;;;;;;;4937068;29;20181;-74
2023/09/17 09:40:13;;;;;;;21.67;6.28;;;;;;;;;;4936266;29;20181;-74
2023/09/17 09:43:30;;;;;;;12.07;6.10;;;;;;;;;;4936690;29;20191;-74
2023/09/17 09:46:35;;;;;;;9.02;6.07;;;;;;;;;;4936477;29;20192;-74
2023/09/17 09:49:40;;;;;;;7.20;5.38;;;;;;;;;;4936637;29;20176;-73
2023/09/17 09:52:44;;;;;;;7.10;6.40;;;;;;;;;;4936109;29;20216;-74
2023/09/17 09:55:49;;;;;;;6.78;5.13;;;;;;;;;;4935699;29;20184;-74
2023/09/17 09:58:56;;;;;;;6.63;5.53;;;;;;;;;;4936165;29;20216;-74
2023/09/17 10:02:04;;;;;;;9.98;5.93;;;;;;;;;;4936478;29;20216;-74
2023/09/17 10:05:18;;;;;;;7.10;5.65;;;;;;;;;;4936028;29;20184;-74
2023/09/17 10:08:22;;;;;;;6.18;5.50;;;;;;;;;;4936483;29;20176;-74
2023/09/17 10:11:26;;;;;;;6.53;5.38;;;;;;;;;;4935086;29;20224;-74
2023/09/17 10:14:36;;;;;;;6.28;5.60;;;;;;;;;;4935949;29;20192;-74
2023/09/17 10:17:41;;;;;;;5.75;5.18;;;;;;;;;;4936455;29;20204;-74
2023/09/17 10:20:48;;;;;;;8.73;5.20;;;;;;;;;;4935727;29;20181;-74
2023/09/17 10:23:54;;;;;;;6.10;5.32;;;;;;;;;;4935309;29;20197;-74
2023/09/17 10:26:59;;;;;;;5.75;5.25;;;;;;;;;;4935902;29;20184;-75
2023/09/17 10:30:04;;;;;;;6.40;4.90;;;;;;;;;;4935773;29;20180;-76
2023/09/17 10:33:11;;;;;;;6.30;5.43;;;;;;;;;;4935444;29;20189;-76
2023/09/17 10:36:16;;;;;;;5.85;5.32;;;;;;;;;;4935660;29;20214;-75
2023/09/17 10:39:25;;;;;;;6.28;5.28;;;;;;;;;;4936069;29;20536;-74
2023/09/17 10:42:32;;;;;;;6.07;4.78;;;;;;;;;;4935196;29;20224;-75
2023/09/17 10:45:37;;;;;;;5.05;4.57;;;;;;;;;;4935884;29;20193;-74
2023/09/17 10:48:43;;;;;;;5.90;5.30;;;;;;;;;;4935608;29;20181;-74
2023/09/17 10:51:50;;;;;;;6.00;5.40;;;;;;;;;;4935680;29;20564;-74
2023/09/17 10:54:54;;;;;;;6.25;5.65;;;;;;;;;;4924364;29;20545;-74
2023/09/17 10:58:14;;;;;;;6.60;5.28;;;;;;;;;;4934877;29;20660;-74
2023/09/17 11:01:26;;;;;;;5.70;4.93;;;;;;;;;;4935402;29;20212;-74
2023/09/17 11:04:31;;;;;;;5.68;5.10;;;;;;;;;;4935664;29;20181;-73
2023/09/17 11:07:36;;;;;;;6.38;5.78;;;;;;;;;;4936280;29;20193;-73
2023/09/17 11:10:42;;;;;;;9.63;5.55;;;;;;;;;;4939247;29;20189;-73
2023/09/17 11:13:46;;;;;;;9.93;5.63;;;;;;;;;;4938206;29;20212;-74
2023/09/17 11:16:50;;;;;;;8.10;4.97;;;;;;;;;;4939441;29;20189;-74
2023/09/17 11:19:54;;;;;;;3.78;3.35;;;;;;;;;;4939000;29;20172;-74
2023/09/17 11:22:58;;;;;;;3.95;3.60;;;;;;;;;;4939064;29;20700;-73
2023/09/17 11:26:02;;;;;;;3.50;3.20;;;;;;;;;;4939139;29;20189;-73
2023/09/17 11:29:08;;;;;;;10.10;4.20;;;;;;;;;;4939110;29;20184;-73
2023/09/17 11:32:20;;;;;;;4.45;2.80;;;;;;;;;;4938994;29;20581;-74
2023/09/17 11:35:24;;;;;;;17.58;3.40;;;;;;;;;;4938701;29;20525;-74
2023/09/17 11:38:29;;;;;;;57.70;6.90;;;;;;;;;;4938717;29;20216;-73
2023/09/17 11:41:36;;;;;;;2.83;2.55;;;;;;;;;;4938919;29;20586;-73
2023/09/17 11:44:43;;;;;;;15.23;3.03;;;;;;;;;;4938846;29;20188;-74
2023/09/17 11:47:47;;;;;;;5.38;2.70;;;;;;;;;;4938169;29;20196;-74
2023/09/17 11:50:52;;;;;;;2.78;2.50;;;;;;;;;;4937501;29;20189;-73
2023/09/17 11:54:01;;;;;;;10.23;2.88;;;;;;;;;;4937797;29;20625;-73
2023/09/17 11:57:06;;;;;;;5.45;2.53;;;;;;;;;;4938745;29;20200;-74
2023/09/17 12:00:11;;;;;;;2.90;2.55;;;;;;;;;;4938510;29;20177;-74
2023/09/17 12:03:16;;;;;;;66.60;4.80;;;;;;;;;;4938575;29;20188;-74
2023/09/17 12:06:21;;;;;;;3.65;2.45;;;;;;;;;;4938275;29;20657;-74
2023/09/17 12:12:36;;;;;;;4.22;2.90;;;;;;;;;;4937024;29;20228;-74
2023/09/17 12:15:41;;;;;;;3.70;3.40;;;;;;;;;;4937901;29;20189;-74
2023/09/17 12:18:46;;;;;;;3.80;2.85;;;;;;;;;;4937714;29;20212;-74
2023/09/17 12:21:53;;;;;;;3.72;3.10;;;;;;;;;;4926443;29;20224;-73
2023/09/17 12:25:05;;;;;;;7.50;2.90;;;;;;;;;;4937238;29;20184;-74
2023/09/17 12:28:09;;;;;;;2.55;2.35;;;;;;;;;;4937829;29;20181;-74
2023/09/17 12:31:13;;;;;;;3.78;2.67;;;;;;;;;;4937520;29;20224;-74
2023/09/17 12:34:20;;;;;;;132.48;7.75;;;;;;;;;;4936984;29;20184;-74
2023/09/17 12:37:25;;;;;;;3.38;2.22;;;;;;;;;;4937749;29;20659;-73
2023/09/17 12:40:29;;;;;;;4.38;2.13;;;;;;;;;;4937068;29;20542;-74
2023/09/17 12:43:34;;;;;;;3.08;2.17;;;;;;;;;;4936752;29;20640;-73
2023/09/17 12:46:38;;;;;;;2.15;1.85;;;;;;;;;;4937362;29;20184;-73
2023/09/17 12:49:43;;;;;;;3.10;2.05;;;;;;;;;;4937508;29;20629;-74
2023/09/17 12:52:47;;;;;;;2.13;1.98;;;;;;;;;;4937435;29;20224;-73
2023/09/17 12:55:51;;;;;;;9.15;3.45;;;;;;;;;;4937252;29;20185;-74
2023/09/17 12:59:00;;;;;;;2.47;2.28;;;;;;;;;;4937019;29;20212;-74
2023/09/17 13:02:06;;;;;;;1.88;1.73;;;;;;;;;;4936955;29;20224;-73
2023/09/17 13:05:20;;;;;;;16.40;2.72;;;;;;;;;;4937130;29;20184;-74
2023/09/17 13:08:25;;;;;;;4.78;2.10;;;;;;;;;;4937496;29;20185;-73
2023/09/17 13:11:29;;;;;;;25.40;3.60;;;;;;;;;;4937066;29;20224;-74
2023/09/17 13:14:38;;;;;;;3.17;2.10;;;;;;;;;;4936342;29;20196;-74
2023/09/17 13:17:42;;;;;;;7.50;2.50;;;;;;;;;;4936915;29;20184;-74
2023/09/17 13:20:46;;;;;;;2.75;2.55;;;;;;;;;;4936955;29;20177;-73
2023/09/17 13:23:50;;;;;;;2.40;2.20;;;;;;;;;;4937287;29;20184;-73
2023/09/17 13:27:03;;;;;;;5.20;2.50;;;;;;;;;;4936063;29;20632;-74
2023/09/17 13:30:08;;;;;;;6.72;2.47;;;;;;;;;;4935672;29;20172;-72
2023/09/17 13:33:14;;;;;;;4.68;2.40;;;;;;;;;;4936526;29;20189;-73
2023/09/17 13:36:19;;;;;;;2.67;2.25;;;;;;;;;;4936737;29;20176;-73
2023/09/17 13:39:24;;;;;;;3.10;2.33;;;;;;;;;;4936631;29;20208;-74
2023/09/17 13:42:29;;;;;;;2.58;2.30;;;;;;;;;;4936614;29;20215;-74
2023/09/17 13:45:33;;;;;;;19.58;3.35;;;;;;;;;;4935847;29;20184;-74
2023/09/17 13:48:37;;;;;;;23.85;2.72;;;;;;;;;;4935760;29;20185;-74
2023/09/17 13:51:41;;;;;;;3.25;2.88;;;;;;;;;;4936623;29;20227;-73
2023/09/17 13:54:45;;;;;;;8.15;2.50;;;;;;;;;;4936849;29;20511;-73
2023/09/17 13:57:54;;;;;;;4.32;2.83;;;;;;;;;;4935624;29;20192;-73
2023/09/17 14:00:58;;;;;;;2.97;2.75;;;;;;;;;;4936061;29;20177;-74
2023/09/17 14:04:02;;;;;;;3.05;2.45;;;;;;;;;;4936116;29;20188;-73
2023/09/17 14:07:06;;;;;;;5.50;2.90;;;;;;;;;;4935570;29;20184;-74
2023/09/17 14:10:10;;;;;;;3.30;2.47;;;;;;;;;;4936075;29;20181;-73
2023/09/17 14:13:15;;;;;;;28.80;3.28;;;;;;;;;;4924326;29;20216;-74
2023/09/17 14:16:19;;;;;;;4.50;2.38;;;;;;;;;;4935955;29;20185;-74
2023/09/17 14:19:24;;;;;;;7.28;2.60;;;;;;;;;;4935296;29;20224;-74
2023/09/17 14:22:28;;;;;;;3.35;2.60;;;;;;;;;;4935273;29;20219;-73
2023/09/17 14:25:32;;;;;;;6.65;2.40;;;;;;;;;;4935975;29;20188;-73
2023/09/17 14:28:36;;;;;;;2.40;2.20;;;;;;;;;;4935836;29;20188;-74
2023/09/17 14:31:40;;;;;;;3.42;2.33;;;;;;;;;;4935379;29;20216;-75
2023/09/17 14:34:44;;;;;;;2.65;2.45;;;;;;;;;;4934991;29;20184;-74
2023/09/17 14:37:48;;;;;;;3.50;2.45;;;;;;;;;;4936048;29;20184;-74
2023/09/17 14:40:52;;;;;;;139.32;9.90;;;;;;;;;;4935381;29;20573;-74
2023/09/17 14:43:56;;;;;;;3.85;2.55;;;;;;;;;;4939953;29;20200;-73
2023/09/17 14:47:00;;;;;;;21.88;4.00;;;;;;;;;;4939841;29;20184;-74
2023/09/17 14:50:07;;;;;;;4.55;2.40;;;;;;;;;;4939783;29;20659;-73
2023/09/17 14:53:11;;;;;;;4.53;2.75;;;;;;;;;;4939695;29;20185;-73
2023/09/17 14:56:15;;;;;;;6.15;2.60;;;;;;;;;;4939665;29;20193;-73
2023/09/17 14:59:19;;;;;;;3.50;2.70;;;;;;;;;;4939580;29;20672;-73
2023/09/17 15:02:23;;;;;;;6.82;3.28;;;;;;;;;;4939369;29;20224;-74
2023/09/17 15:05:28;;;;;;;3.22;2.45;;;;;;;;;;4939198;29;20638;-74
2023/09/17 15:08:32;;;;;;;4.80;2.55;;;;;;;;;;4939699;29;20196;-74
2023/09/17 15:11:36;;;;;;;3.22;2.25;;;;;;;;;;4939419;29;20563;-74
2023/09/17 15:14:40;;;;;;;7.25;2.63;;;;;;;;;;4927521;29;20184;-74
2023/09/17 15:17:44;;;;;;;5.38;2.80;;;;;;;;;;4939502;29;20529;-74
2023/09/17 15:20:49;;;;;;;4.57;2.40;;;;;;;;;;4939230;29;20219;-74
2023/09/17 15:23:54;;;;;;;2.55;2.35;;;;;;;;;;4939115;29;20287;-74
2023/09/17 15:26:58;;;;;;;7.15;2.63;;;;;;;;;;4939321;29;20529;-74
2023/09/17 15:30:03;;;;;;;3.95;2.58;;;;;;;;;;4938809;29;20183;-74
2023/09/17 15:33:08;;;;;;;12.10;2.95;;;;;;;;;;4939055;29;20188;-74
2023/09/17 15:36:12;;;;;;;2.70;2.47;;;;;;;;;;4938869;29;20188;-74
2023/09/17 15:39:16;;;;;;;11.20;2.45;;;;;;;;;;4938335;29;20211;-74
2023/09/17 15:42:19;;;;;;;4.22;2.28;;;;;;;;;;4938787;29;20235;-74
2023/09/17 15:45:24;;;;;;;3.50;2.10;;;;;;;;;;4938739;29;20186;-74
2023/09/17 15:48:29;;;;;;;3.20;2.28;;;;;;;;;;4938471;29;20186;-74
2023/09/17 15:51:33;;;;;;;1.98;1.83;;;;;;;;;;4937518;29;20222;-74
2023/09/17 15:54:37;;;;;;;2.78;1.92;;;;;;;;;;4937616;29;20187;-74
2023/09/17 15:57:45;;;;;;;2.08;1.90;;;;;;;;;;4938523;29;20180;-74
2023/09/17 16:00:49;;;;;;;4.18;2.10;;;;;;;;;;4938374;29;20211;-74
2023/09/17 16:03:53;;;;;;;31.85;3.72;;;;;;;;;;4938468;29;20191;-74
2023/09/17 16:06:58;;;;;;;6.97;2.35;;;;;;;;;;4938184;29;20663;-73
2023/09/17 16:10:02;;;;;;;2.10;1.90;;;;;;;;;;4938337;29;20186;-74
2023/09/17 16:13:06;;;;;;;2.42;2.03;;;;;;;;;;4938213;29;20228;-74
2023/09/17 16:16:10;;;;;;;2.78;1.75;;;;;;;;;;4937974;29;20197;-74
2023/09/17 16:19:14;;;;;;;4.80;1.90;;;;;;;;;;4936988;29;20199;-73
2023/09/17 16:22:19;;;;;;;2.45;1.80;;;;;;;;;;4937234;29;20226;-74
2023/09/17 16:25:23;;;;;;;3.13;2.20;;;;;;;;;;4937808;29;20182;-74
2023/09/17 16:28:28;;;;;;;2.20;2.00;;;;;;;;;;4938001;29;20184;-74
2023/09/17 16:31:32;;;;;;;2.05;1.85;;;;;;;;;;4936817;29;20209;-74
2023/09/17 16:34:37;;;;;;;6.30;2.47;;;;;;;;;;4937661;29;20183;-73
2023/09/17 16:37:41;;;;;;;4.13;2.40;;;;;;;;;;4938073;29;20181;-74
2023/09/17 16:40:46;;;;;;;2.83;2.47;;;;;;;;;;4937401;29;20224;-73
2023/09/17 16:43:50;;;;;;;4.60;2.55;;;;;;;;;;4937781;29;20188;-74
2023/09/17 16:46:54;;;;;;;6.00;2.70;;;;;;;;;;4936642;29;20194;-74
2023/09/17 16:49:58;;;;;;;2.90;2.67;;;;;;;;;;4937528;29;20188;-74
2023/09/17 16:53:02;;;;;;;4.13;2.70;;;;;;;;;;4937180;29;20227;-73
2023/09/17 16:56:07;;;;;;;3.15;2.88;;;;;;;;;;4936710;29;20187;-73
2023/09/17 16:59:11;;;;;;;4.50;2.53;;;;;;;;;;4937634;29;20188;-73
2023/09/17 17:02:15;;;;;;;3.45;2.60;;;;;;;;;;4937685;29;20222;-74
2023/09/17 17:05:19;;;;;;;3.13;2.83;;;;;;;;;;4935461;29;20188;-73
2023/09/17 17:08:24;;;;;;;3.22;2.80;;;;;;;;;;4936956;29;20190;-74
2023/09/17 17:11:32;;;;;;;3.00;2.80;;;;;;;;;;4936180;29;20226;-74
2023/09/17 17:14:36;;;;;;;5.13;2.90;;;;;;;;;;4937186;29;20525;-73
2023/09/17 17:17:40;;;;;;;2.50;2.30;;;;;;;;;;4936886;29;20191;-73
2023/09/17 17:20:44;;;;;;;4.10;3.17;;;;;;;;;;4936650;29;20210;-73
2023/09/17 17:23:49;;;;;;;3.40;3.10;;;;;;;;;;4936638;29;20185;-74
2023/09/17 17:26:53;;;;;;;5.30;3.40;;;;;;;;;;4925075;29;20180;-74
2023/09/17 17:29:57;;;;;;;5.40;3.27;;;;;;;;;;4936565;29;20180;-74
2023/09/17 17:33:02;;;;;;;4.33;3.43;;;;;;;;;;4937381;29;20212;-71
2023/09/17 17:36:06;;;;;;;4.50;2.87;;;;;;;;;;4936438;29;20642;-71
2023/09/17 17:39:11;;;;;;;3.87;2.87;;;;;;;;;;4936342;29;20186;-71
2023/09/17 17:42:15;;;;;;;4.83;3.07;;;;;;;;;;4936731;29;20209;-71
2023/09/17 17:45:20;;;;;;;3.17;2.83;;;;;;;;;;4936863;29;20188;-71
2023/09/17 17:48:26;;;;;;;3.90;3.33;;;;;;;;;;4937011;29;20647;-71
2023/09/17 17:51:30;;;;;;;3.60;3.10;;;;;;;;;;4936069;29;20218;-71
2023/09/17 17:54:34;;;;;;;4.77;3.60;;;;;;;;;;4936114;29;20535;-71
2023/09/17 17:57:38;;;;;;;3.47;3.17;;;;;;;;;;4936058;29;20190;-71
2023/09/17 18:00:44;;;;;;;3.67;3.37;;;;;;;;;;4935676;29;20214;-71
2023/09/17 18:03:48;;;;;;;4.77;3.53;;;;;;;;;;4936764;29;20183;-71
2023/09/17 18:06:56;;;;;;;3.67;3.37;;;;;;;;;;4936458;29;20186;-71
2023/09/17 18:10:06;;;;;;;3.63;3.33;;;;;;;;;;4936196;29;20184;-71
2023/09/17 18:13:10;;;;;;;3.97;3.47;;;;;;;;;;4935903;29;20210;-71
2023/09/17 18:16:14;;;;;;;7.13;4.03;;;;;;;;;;4935552;29;20182;-71
2023/09/17 18:19:18;;;;;;;3.80;3.43;;;;;;;;;;4935042;29;20189;-71
2023/09/17 18:22:22;;;;;;;4.60;3.97;;;;;;;;;;4935293;29;20583;-71